Grand Rapids, MN

1:33 AM CDT on April 27, 2018 (GMT -0500)
Grand Rapids, MN - Crystal Lake | | Change Station

Elev 1292 ft 47.24 °N, 93.53 °W | Updated 12 seconds ago

Overcast
Overcast
37.8 °F
Feels Like 38 °F
N
0.0
Wind Variable Wind from NW
Gusts 0.0 mph

Today
High -- | Low -- °F
--% Chance of Precip.
Yesterday
High -- | Low -- °F
Precip. -- in
Pressure 29.88 in
Visibility 10.0 miles
Clouds Few 5000 ft
Mostly Cloudy 9500 ft
Overcast 12000 ft
Windchill 38 °F
Dew Point 26 °F
Humidity 61%
Rainfall 0.00 in
Snow Depth Not available.
6:04 AM 8:19 PM
Waxing Gibbous, 92% visible
METAR KGPZ 270556Z AUTO 18003KT 10SM FEW050 BKN095 OVC120 03/M07 A2985 RMK AO2 SLP119 T00331067 10117 21006 401331006 56023
Pressure 29.88 in
Visibility 10.0 miles
Clouds Few 5000 ft
Mostly Cloudy 9500 ft
Overcast 12000 ft
Windchill 38 °F
Dew Point 26 °F
Humidity 61%
Rainfall 0.00 in
Snow Depth Not available.
6:04 AM 8:19 PM
Waxing Gibbous, 92% visible
METAR KGPZ 270556Z AUTO 18003KT 10SM FEW050 BKN095 OVC120 03/M07 A2985 RMK AO2 SLP119 T00331067 10117 21006 401331006 56023

Get Severe Weather Alerts

Thanks for signing up!

Be on the lookout for a verification email in your inbox.

You'll start receiving the daily forecast at 6 AM.

×

10-Day Weather Forecast

Almanac

Astronomy

Apr. 27, 2018 Rise Set
Actual Time
Civil Twilight
Nautical Twilight
Astronomical Twilight
Moon
Length of Visible Light
Length of Day
Tomorrow will be .
, % of the Moon is Illuminated

Today's Extremes

State Highs State Lows

Community

WunderPhotos

Category 6

Welcome to Category 6. This is the collective home for Weather Underground's featured writeups by Dr. Jeff Masters (right), Bob Henson (left), Chris Burt, and other regular contributors.

Nearby

Air Quality

  Air Quality AQ Index Pollutant
Not available.

Snow Depth

Station Depth Elevation

Earthquake Activity

City Distance Mag. Time & Date
Minimum magnitude displayed is 2.5.

Coastal Water Temperatures

Place Temperature

Stations

Nearby Weather Stations

Station Location Temp. Windchill Dew Point Humidity Wind Precip. Elev Updated Type
                   

Watches & Warnings

There are currently no watches in effect.